Time;durP1;ratioP1;P1;durP2;ratioP2;P2;SDS_P1;SDS_P2;PMS_P1;PMS_P2;Temp;Humidity;BMP_temperature;BMP_pressure;BME280_temperature;BME280_humidity;BME280_pressure;Samples;Min_cycle;Max_cycle;Signal;HPM_P1;HPM_P2
2022/07/02 00:00:48;;;;;;;;;;;;;;;22.61;59.71;95092.25;5125444;28;20014;-78
2022/07/02 00:03:23;;;;;;;;;;;;;;;22.62;58.97;95093.06;5149763;27;19923;-79
2022/07/02 00:05:56;;;;;;;;;;;;;;;22.63;59.55;95092.00;5120204;28;20034;-79
2022/07/02 00:08:22;;;;;;;;;;;;;;;22.58;59.69;95092.09;5170678;22;20006;-78
2022/07/02 00:10:47;;;;;;;;;;;;;;;22.55;59.57;95088.19;5073611;28;20804;-79
2022/07/02 00:13:12;;;;;;;;;;;;;;;22.52;60.29;95091.44;5056747;28;19920;-79
2022/07/02 00:15:38;;;;;;;;;;;;;;;22.50;60.02;95098.91;5073817;28;20540;-78
2022/07/02 00:18:03;;;;;;;;;;;;;;;22.45;60.24;95099.00;5055651;28;20342;-78
2022/07/02 00:20:28;;;;;;;;;;;;;;;22.40;60.13;95094.59;5054509;28;19931;-78
2022/07/02 00:22:54;;;;;;;;;;;;;;;22.36;60.27;95098.16;5076540;28;19916;-78
2022/07/02 00:25:19;;;;;;;;;;;;;;;22.30;60.53;95096.72;5075428;28;19924;-79
2022/07/02 00:27:44;;;;;;;;;;;;;;;22.25;60.76;95094.16;5057407;28;19920;-79
2022/07/02 00:30:10;;;;;;;;;;;;;;;22.24;60.41;95092.59;5072892;28;20441;-79
2022/07/02 00:35:09;;;;;;;;;;;;;;;22.23;60.72;95091.00;5061437;28;19984;-79
2022/07/02 00:37:35;;;;;;;;;;;;;;;22.21;60.84;95091.31;5064026;28;19971;-79
2022/07/02 00:40:00;;;;;;;;;;;;;;;22.16;60.85;95094.88;5063618;28;19925;-79
2022/07/02 00:42:26;;;;;;;;;;;;;;;22.11;60.95;95097.59;5071478;28;19969;-79
2022/07/02 00:44:51;;;;;;;;;;;;;;;22.06;61.10;95105.66;5070247;28;20376;-80
2022/07/02 00:47:16;;;;;;;;;;;;;;;22.06;61.39;95095.06;5047194;28;19925;-79
2022/07/02 00:49:42;;;;;;;;;;;;;;;22.04;61.00;95105.16;5047172;28;19927;-79
2022/07/02 00:52:07;;;;;;;;;;;;;;;22.01;61.31;95108.41;5064161;28;19929;-79
2022/07/02 00:54:32;;;;;;;;;;;;;;;22.00;61.30;95101.53;5064227;28;19979;-79
2022/07/02 00:56:58;;;;;;;;;;;;;;;21.97;61.35;95111.94;5102157;22;20025;-79
2022/07/02 00:59:23;;;;;;;;;;;;;;;21.95;61.80;95114.84;5122459;28;19987;-79
2022/07/02 01:01:49;;;;;;;;;;;;;;;21.97;61.80;95112.72;5117342;27;19924;-78
2022/07/02 01:04:14;;;;;;;;;;;;;;;22.00;61.73;95104.19;5083302;28;20117;-78
2022/07/02 01:06:41;;;;;;;;;;;;;;;21.98;61.67;95103.69;5104627;28;19928;-79
2022/07/02 01:11:50;;;;;;;;;;;;;;;21.97;61.77;95107.44;5083380;28;19982;-79
2022/07/02 01:14:16;;;;;;;;;;;;;;;21.96;61.63;95092.59;5080199;28;19931;-79
2022/07/02 01:16:42;;;;;;;;;;;;;;;21.95;61.76;95098.97;5084080;28;19924;-79
2022/07/02 01:19:07;;;;;;;;;;;;;;;21.92;61.52;95091.63;5108883;22;19930;-79
2022/07/02 01:21:32;;;;;;;;;;;;;;;21.90;61.89;95087.72;5185281;22;19928;-78
2022/07/02 01:23:57;;;;;;;;;;;;;;;21.88;61.79;95088.78;5088690;28;19920;-78
2022/07/02 01:26:23;;;;;;;;;;;;;;;21.85;61.49;95088.59;5081449;28;20029;-78
2022/07/02 01:28:48;;;;;;;;;;;;;;;21.80;61.80;95089.50;5084584;28;19938;-78
2022/07/02 01:31:13;;;;;;;;;;;;;;;21.79;62.12;95092.41;5085036;28;19927;-78
2022/07/02 01:33:45;;;;;;;;;;;;;;;21.77;62.55;95098.00;5084259;28;19920;-78
2022/07/02 01:36:10;;;;;;;;;;;;;;;21.74;62.25;95095.16;5083038;28;19921;-78
2022/07/02 01:38:35;;;;;;;;;;;;;;;21.71;62.51;95093.13;5118011;22;20256;-78
2022/07/02 01:43:44;;;;;;;;;;;;;;;21.54;62.68;95094.50;5070468;28;19978;-78
2022/07/02 01:46:10;;;;;;;;;;;;;;;21.47;62.97;95094.06;5082796;28;19920;-78
2022/07/02 01:48:38;;;;;;;;;;;;;;;21.40;63.52;95091.03;5076767;28;19921;-79
2022/07/02 01:51:03;;;;;;;;;;;;;;;21.36;63.64;95087.44;5073439;28;19924;-79
2022/07/02 01:53:28;;;;;;;;;;;;;;;21.34;63.85;95100.16;5073611;28;19920;-79
2022/07/02 01:55:54;;;;;;;;;;;;;;;21.32;64.00;95083.81;5073633;28;20392;-78
2022/07/02 01:58:19;;;;;;;;;;;;;;;21.30;64.19;95093.88;5072697;28;19924;-78
2022/07/02 02:00:44;;;;;;;;;;;;;;;21.29;64.34;95092.28;5073538;28;19924;-78
2022/07/02 02:05:42;;;;;;;;;;;;;;;21.29;64.26;95097.59;5132618;22;19923;-79
2022/07/02 02:08:07;;;;;;;;;;;;;;;21.28;64.39;95096.03;5105437;28;20138;-78
2022/07/02 02:10:38;;;;;;;;;;;;;;;21.25;64.42;95096.63;5103283;28;19947;-79
2022/07/02 02:13:03;;;;;;;;;;;;;;;21.22;64.47;95091.88;5103295;28;20024;-78
2022/07/02 02:15:29;;;;;;;;;;;;;;;21.21;64.58;95082.38;5100986;28;19955;-78
2022/07/02 02:17:54;;;;;;;;;;;;;;;21.21;64.71;95090.31;5102469;28;19970;-78
2022/07/02 02:20:19;;;;;;;;;;;;;;;21.21;64.81;95090.31;5103004;28;19924;-79
2022/07/02 02:22:44;;;;;;;;;;;;;;;21.17;64.63;95089.34;5102833;28;20290;-78
2022/07/02 02:25:10;;;;;;;;;;;;;;;21.12;63.40;95100.75;5102907;28;19931;-78
2022/07/02 02:27:35;;;;;;;;;;;;;;;21.10;62.66;95099.50;5101904;28;19963;-78
2022/07/02 02:30:01;;;;;;;;;;;;;;;21.10;62.40;95100.28;5102740;28;19926;-78
2022/07/02 02:32:26;;;;;;;;;;;;;;;21.10;61.77;95100.28;5102185;28;19924;-79
2022/07/02 02:34:52;;;;;;;;;;;;;;;21.10;61.92;95104.78;5102892;28;19969;-78
2022/07/02 02:37:17;;;;;;;;;;;;;;;21.09;61.28;95111.16;5086319;28;19920;-78
2022/07/02 02:39:42;;;;;;;;;;;;;;;21.14;61.23;95114.47;5084008;28;19926;-79
2022/07/02 02:42:07;;;;;;;;;;;;;;;21.15;61.71;95108.13;5099120;28;19924;-79
2022/07/02 02:44:33;;;;;;;;;;;;;;;21.17;62.57;95111.28;5105731;28;20302;-79
2022/07/02 02:46:58;;;;;;;;;;;;;;;21.18;62.37;95117.34;5084758;28;19924;-78
2022/07/02 02:49:23;;;;;;;;;;;;;;;21.17;61.85;95119.22;5082431;28;19926;-79
2022/07/02 02:51:51;;;;;;;;;;;;;;;21.18;61.90;95123.41;5102901;28;20369;-78
2022/07/02 02:54:16;;;;;;;;;;;;;;;21.22;62.09;95119.09;5104301;28;19931;-79
2022/07/02 02:56:42;;;;;;;;;;;;;;;21.28;63.01;95128.53;5101478;28;19924;-79
2022/07/02 02:59:07;;;;;;;;;;;;;;;21.31;62.47;95129.81;5084486;28;20006;-78
2022/07/02 03:01:33;;;;;;;;;;;;;;;21.34;62.16;95137.19;5103611;28;19920;-78
2022/07/02 03:03:58;;;;;;;;;;;;;;;21.36;61.99;95145.63;5110209;28;19930;-76
2022/07/02 03:06:23;;;;;;;;;;;;;;;21.38;61.81;95143.47;5107864;28;19919;-77
2022/07/02 03:08:49;;;;;;;;;;;;;;;21.37;61.65;95143.75;5105796;28;20387;-77
2022/07/02 03:11:14;;;;;;;;;;;;;;;21.35;61.44;95149.34;5103118;28;20413;-78
2022/07/02 03:13:39;;;;;;;;;;;;;;;21.32;61.87;95139.34;5105123;28;19932;-78
2022/07/02 03:16:07;;;;;;;;;;;;;;;21.33;61.91;95145.44;5103258;28;20391;-78
2022/07/02 03:18:32;;;;;;;;;;;;;;;21.36;61.98;95139.56;5085954;28;20081;-77
2022/07/02 03:20:57;;;;;;;;;;;;;;;21.39;61.85;95145.03;5126381;22;20316;-77
2022/07/02 03:23:22;;;;;;;;;;;;;;;21.44;61.49;95147.59;5065244;28;19924;-77
2022/07/02 03:25:47;;;;;;;;;;;;;;;21.47;61.64;95147.00;5064255;28;19925;-77
2022/07/02 03:28:13;;;;;;;;;;;;;;;21.49;61.50;95152.81;5064168;28;20331;-78
2022/07/02 03:30:38;;;;;;;;;;;;;;;21.51;61.20;95153.28;5047150;28;19932;-79
2022/07/02 03:33:06;;;;;;;;;;;;;;;21.57;61.45;95154.75;5047670;28;20388;-79
2022/07/02 03:35:32;;;;;;;;;;;;;;;21.68;61.42;95157.22;5047949;28;19920;-78
2022/07/02 03:37:57;;;;;;;;;;;;;;;21.78;60.91;95162.31;5030947;28;19928;-78
2022/07/02 03:40:22;;;;;;;;;;;;;;;21.88;60.71;95162.13;5066425;28;19947;-78
2022/07/02 03:42:47;;;;;;;;;;;;;;;21.98;60.24;95155.88;5048545;28;19924;-79
2022/07/02 03:45:13;;;;;;;;;;;;;;;22.08;59.91;95163.63;5032194;28;20004;-78
2022/07/02 03:47:38;;;;;;;;;;;;;;;22.21;59.64;95170.00;5050740;22;19928;-77
2022/07/02 03:50:04;;;;;;;;;;;;;;;22.33;59.24;95167.66;5127365;28;19919;-78
2022/07/02 03:52:29;;;;;;;;;;;;;;;22.46;58.89;95172.91;5112448;28;19926;-78
2022/07/02 03:54:54;;;;;;;;;;;;;;;22.58;58.41;95158.34;5105248;28;19924;-78
2022/07/02 03:57:19;;;;;;;;;;;;;;;22.73;58.09;95166.75;5103609;28;19921;-79
2022/07/02 03:59:45;;;;;;;;;;;;;;;22.87;57.97;95166.72;5109472;28;19942;-78
2022/07/02 04:02:10;;;;;;;;;;;;;;;23.02;57.56;95165.59;5111256;28;19920;-79
2022/07/02 04:04:35;;;;;;;;;;;;;;;23.18;56.73;95174.75;5104951;28;19927;-79
2022/07/02 04:07:01;;;;;;;;;;;;;;;23.89;55.66;95170.31;5103173;28;20020;-78
2022/07/02 04:09:26;;;;;;;;;;;;;;;25.84;49.82;95171.34;5104584;28;20010;-78
2022/07/02 04:11:51;;;;;;;;;;;;;;;27.83;45.15;95162.69;5105223;28;20412;-79
2022/07/02 04:14:17;;;;;;;;;;;;;;;29.70;40.48;95168.50;5105748;28;20311;-79
2022/07/02 04:16:42;;;;;;;;;;;;;;;31.38;36.82;95164.97;5093327;28;19983;-79
2022/07/02 04:19:07;;;;;;;;;;;;;;;32.75;33.65;95167.59;5104194;28;19920;-79
2022/07/02 04:21:32;;;;;;;;;;;;;;;34.06;31.60;95170.22;5105476;28;19920;-79
2022/07/02 04:23:58;;;;;;;;;;;;;;;35.23;29.49;95175.56;5105314;28;19924;-79
2022/07/02 04:26:23;;;;;;;;;;;;;;;36.35;27.64;95178.09;5111123;28;19920;-79
2022/07/02 04:28:48;;;;;;;;;;;;;;;37.38;25.62;95175.13;5105712;28;19994;-79
2022/07/02 04:31:14;;;;;;;;;;;;;;;38.27;24.74;95171.09;5104103;28;19923;-79
2022/07/02 04:33:39;;;;;;;;;;;;;;;39.18;23.73;95163.16;5095785;28;19920;-79
2022/07/02 04:36:04;;;;;;;;;;;;;;;40.04;22.94;95170.19;5103044;28;19976;-78
2022/07/02 04:38:30;;;;;;;;;;;;;;;40.84;22.07;95171.16;5103729;28;20362;-78
2022/07/02 04:40:55;;;;;;;;;;;;;;;41.48;20.89;95173.34;5102894;28;20001;-78
2022/07/02 04:43:20;;;;;;;;;;;;;;;42.15;19.81;95165.63;5102934;28;19920;-77
2022/07/02 04:45:45;;;;;;;;;;;;;;;42.70;19.39;95166.59;5102367;28;19943;-77
2022/07/02 04:48:11;;;;;;;;;;;;;;;43.39;19.05;95164.28;5102569;28;19923;-77
2022/07/02 04:50:36;;;;;;;;;;;;;;;43.95;17.91;95163.78;5099395;28;20327;-77
2022/07/02 04:53:01;;;;;;;;;;;;;;;44.43;17.50;95169.31;5103623;28;20002;-80
2022/07/02 04:55:27;;;;;;;;;;;;;;;44.92;17.22;95177.84;5101875;28;20003;-78
2022/07/02 04:57:52;;;;;;;;;;;;;;;45.39;16.77;95183.16;5102420;28;19920;-78
2022/07/02 05:00:17;;;;;;;;;;;;;;;45.74;16.27;95175.59;5103366;28;19920;-78
2022/07/02 05:02:43;;;;;;;;;;;;;;;46.06;16.00;95174.34;5092641;28;20391;-78
2022/07/02 05:05:08;;;;;;;;;;;;;;;46.36;15.97;95182.94;5101216;28;20307;-78
2022/07/02 05:07:34;;;;;;;;;;;;;;;46.54;15.35;95173.97;5104386;28;19920;-78
2022/07/02 05:09:59;;;;;;;;;;;;;;;46.54;15.26;95174.75;5116968;28;19924;-78
2022/07/02 05:12:24;;;;;;;;;;;;;;;46.86;15.09;95170.63;5101375;28;20014;-78
2022/07/02 05:14:49;;;;;;;;;;;;;;;47.33;14.93;95172.09;5101640;28;19924;-78
2022/07/02 05:17:18;;;;;;;;;;;;;;;47.65;14.57;95173.38;5100332;28;19963;-80
2022/07/02 05:19:44;;;;;;;;;;;;;;;47.63;13.97;95172.34;5119300;28;19924;-80
2022/07/02 05:22:09;;;;;;;;;;;;;;;48.09;14.17;95170.16;5101559;28;20061;-80
2022/07/02 05:24:34;;;;;;;;;;;;;;;48.61;13.86;95179.81;5102531;28;19926;-78
2022/07/02 05:27:00;;;;;;;;;;;;;;;48.72;13.43;95170.22;5103881;28;19931;-79
2022/07/02 05:29:25;;;;;;;;;;;;;;;49.16;13.46;95182.13;5102975;28;20006;-79
2022/07/02 05:31:51;;;;;;;;;;;;;;;49.54;13.33;95188.78;5102339;28;19931;-79
2022/07/02 05:34:16;;;;;;;;;;;;;;;49.70;12.61;95182.78;5103559;28;20003;-79
2022/07/02 05:36:41;;;;;;;;;;;;;;;49.97;12.32;95183.69;5102310;28;19924;-79
2022/07/02 05:39:06;;;;;;;;;;;;;;;49.99;12.35;95183.97;5094335;28;19949;-78
2022/07/02 05:41:32;;;;;;;;;;;;;;;50.13;11.90;95188.72;5087171;28;20474;-80
2022/07/02 05:43:57;;;;;;;;;;;;;;;49.64;12.44;95186.69;5095198;28;19969;-80
2022/07/02 05:46:22;;;;;;;;;;;;;;;49.81;12.10;95193.28;5094474;28;20422;-81
2022/07/02 05:48:48;;;;;;;;;;;;;;;49.86;12.40;95192.56;5102221;28;19923;-78
2022/07/02 05:51:13;;;;;;;;;;;;;;;49.95;12.18;95189.69;5094131;28;19931;-79
2022/07/02 05:53:38;;;;;;;;;;;;;;;50.05;12.46;95195.88;5101715;28;20058;-79
2022/07/02 05:56:04;;;;;;;;;;;;;;;50.37;12.02;95197.59;5101376;28;19920;-78
2022/07/02 05:58:29;;;;;;;;;;;;;;;50.53;11.67;95192.78;5105354;28;19958;-79
2022/07/02 06:00:55;;;;;;;;;;;;;;;49.76;12.71;95186.38;5103887;28;19939;-78
2022/07/02 06:03:20;;;;;;;;;;;;;;;49.92;12.39;95179.59;5093801;28;19985;-79
2022/07/02 06:08:30;;;;;;;;;;;;;;;50.17;12.53;95186.50;5103175;28;19976;-80
2022/07/02 06:10:55;;;;;;;;;;;;;;;50.58;12.16;95190.06;5085799;28;19919;-79
2022/07/02 06:13:20;;;;;;;;;;;;;;;50.68;11.68;95193.44;5105649;28;19927;-80
2022/07/02 06:15:46;;;;;;;;;;;;;;;50.98;11.51;95183.75;5108896;28;19920;-82
2022/07/02 06:18:12;;;;;;;;;;;;;;;50.48;12.28;95185.16;5108724;28;19959;-83
2022/07/02 06:20:38;;;;;;;;;;;;;;;50.59;12.05;95190.81;5107529;28;19986;-84
2022/07/02 06:23:03;;;;;;;;;;;;;;;50.49;12.48;95190.22;5098815;28;19959;-81
2022/07/02 06:25:28;;;;;;;;;;;;;;;50.67;12.16;95187.16;5102457;28;20014;-80
2022/07/02 06:27:53;;;;;;;;;;;;;;;50.46;12.16;95193.97;5103862;28;19920;-81
2022/07/02 06:30:19;;;;;;;;;;;;;;;50.42;12.30;95191.38;5103659;28;20018;-81
2022/07/02 06:32:44;;;;;;;;;;;;;;;50.08;12.13;95186.63;5105095;28;19919;-79
2022/07/02 06:35:10;;;;;;;;;;;;;;;49.78;12.40;95194.97;5103510;28;19924;-79
2022/07/02 06:37:35;;;;;;;;;;;;;;;49.86;12.66;95187.81;5104039;28;19935;-79
2022/07/02 06:40:00;;;;;;;;;;;;;;;49.93;13.14;95183.09;5123693;28;19926;-80
2022/07/02 06:42:29;;;;;;;;;;;;;;;49.83;12.97;95197.06;5104565;28;20018;-81
2022/07/02 06:44:55;;;;;;;;;;;;;;;49.99;12.56;95192.25;5105146;28;19931;-79
2022/07/02 06:47:21;;;;;;;;;;;;;;;50.17;12.68;95194.81;5104904;28;19948;-81
2022/07/02 06:49:46;;;;;;;;;;;;;;;49.86;13.03;95193.34;5110072;28;20582;-83
2022/07/02 06:52:11;;;;;;;;;;;;;;;49.87;12.48;95192.09;5106391;28;20011;-86
2022/07/02 06:54:37;;;;;;;;;;;;;;;49.68;12.90;95179.75;5098405;28;19923;-85
2022/07/02 06:57:02;;;;;;;;;;;;;;;49.64;13.30;95192.97;5108853;28;19920;-85
2022/07/02 06:59:28;;;;;;;;;;;;;;;49.75;12.30;95193.16;5109433;28;19927;-85
2022/07/02 07:01:53;;;;;;;;;;;;;;;49.35;13.24;95193.00;5125276;28;19924;-84
2022/07/02 07:04:18;;;;;;;;;;;;;;;49.17;13.35;95186.41;5131442;28;19931;-85
2022/07/02 07:07:05;;;;;;;;;;;;;;;48.91;12.99;95185.38;5113230;28;19920;-85
2022/07/02 07:09:29;;;;;;;;;;;;;;;48.39;13.73;95184.84;5111954;28;19931;-85
2022/07/02 07:11:54;;;;;;;;;;;;;;;47.45;14.27;95198.69;5096400;28;19923;-85
2022/07/02 07:14:20;;;;;;;;;;;;;;;46.70;15.10;95187.41;5105306;28;19920;-85
2022/07/02 07:16:45;;;;;;;;;;;;;;;46.05;15.61;95183.81;5105624;28;19926;-85
2022/07/02 07:19:11;;;;;;;;;;;;;;;45.58;16.15;95195.03;5104979;28;20440;-86
2022/07/02 07:21:37;;;;;;;;;;;;;;;45.24;16.21;95197.84;5098936;28;19927;-86
2022/07/02 07:24:03;;;;;;;;;;;;;;;44.78;16.20;95194.78;5101336;28;19919;-86
2022/07/02 07:26:28;;;;;;;;;;;;;;;44.21;16.91;95191.94;5091766;28;19924;-86
2022/07/02 07:28:53;;;;;;;;;;;;;;;43.88;17.89;95193.38;5107020;28;19919;-83
2022/07/02 07:31:22;;;;;;;;;;;;;;;43.57;18.17;95190.38;5107102;28;19920;-84
2022/07/02 07:33:50;;;;;;;;;;;;;;;43.06;18.09;95193.75;5109300;28;19931;-84
2022/07/02 07:36:22;;;;;;;;;;;;;;;42.61;18.40;95201.22;5112644;28;19919;-84
2022/07/02 07:38:47;;;;;;;;;;;;;;;42.15;19.90;95203.91;5100194;28;19976;-86
2022/07/02 07:41:13;;;;;;;;;;;;;;;40.90;20.75;95205.72;5100216;28;20015;-86
2022/07/02 07:43:38;;;;;;;;;;;;;;;40.32;21.80;95204.34;5105887;28;19928;-83
2022/07/02 07:46:03;;;;;;;;;;;;;;;39.87;22.13;95194.53;5108932;28;19924;-85
2022/07/02 07:48:29;;;;;;;;;;;;;;;39.69;22.37;95196.72;5100269;28;19924;-78
2022/07/02 07:50:54;;;;;;;;;;;;;;;39.69;22.91;95191.25;5105060;28;20337;-84
2022/07/02 07:53:20;;;;;;;;;;;;;;;39.64;22.97;95199.13;5107252;28;19947;-83
2022/07/02 07:55:46;;;;;;;;;;;;;;;39.45;23.10;95197.81;5114336;28;19927;-86
2022/07/02 07:58:12;;;;;;;;;;;;;;;39.38;23.22;95192.44;5104219;28;19921;-78
2022/07/02 08:00:37;;;;;;;;;;;;;;;39.35;23.42;95191.31;5102195;28;19926;-88
2022/07/02 08:03:02;;;;;;;;;;;;;;;39.23;23.65;95191.88;5095888;28;19968;-87
2022/07/02 08:05:28;;;;;;;;;;;;;;;39.16;22.93;95198.16;5104554;28;20016;-86
2022/07/02 08:07:53;;;;;;;;;;;;;;;39.10;24.36;95194.34;5107120;28;19924;-85
2022/07/02 08:10:18;;;;;;;;;;;;;;;39.02;23.38;95195.56;5110993;28;19974;-87
2022/07/02 08:12:44;;;;;;;;;;;;;;;38.90;23.73;95198.84;5109369;28;19920;-86
2022/07/02 08:15:09;;;;;;;;;;;;;;;38.73;24.14;95198.63;5112891;28;19950;-83
2022/07/02 08:17:34;;;;;;;;;;;;;;;38.55;23.87;95195.25;5113608;28;19959;-84
2022/07/02 08:20:02;;;;;;;;;;;;;;;38.31;24.03;95198.97;5107827;28;19931;-83
2022/07/02 08:22:27;;;;;;;;;;;;;;;38.24;24.57;95194.41;5109498;28;19924;-86
2022/07/02 08:24:53;;;;;;;;;;;;;;;38.21;24.36;95194.41;5105287;28;19924;-87
2022/07/02 08:27:18;;;;;;;;;;;;;;;38.17;24.55;95193.63;5103765;28;20011;-86
2022/07/02 08:29:43;;;;;;;;;;;;;;;38.14;24.63;95198.69;5125076;22;19928;-86
2022/07/02 08:32:08;;;;;;;;;;;;;;;38.12;25.20;95198.34;5104700;28;19923;-87
2022/07/02 08:34:34;;;;;;;;;;;;;;;38.07;24.41;95201.44;5105789;28;20456;-86
2022/07/02 08:36:59;;;;;;;;;;;;;;;38.03;24.86;95192.56;5103695;28;19920;-87
2022/07/02 08:39:24;;;;;;;;;;;;;;;38.02;24.70;95199.19;5134404;22;20348;-86
2022/07/02 08:41:50;;;;;;;;;;;;;;;37.88;25.08;95201.97;5095598;28;19925;-86
2022/07/02 08:44:15;;;;;;;;;;;;;;;37.84;25.11;95203.97;5085143;28;20010;-86
2022/07/02 08:46:41;;;;;;;;;;;;;;;37.80;25.47;95203.22;5067823;28;19936;-86
2022/07/02 08:49:06;;;;;;;;;;;;;;;37.57;25.14;95203.69;5087524;28;19931;-87
2022/07/02 08:51:31;;;;;;;;;;;;;;;37.39;25.20;95201.06;5087157;28;19931;-88
2022/07/02 08:53:57;;;;;;;;;;;;;;;37.39;25.03;95201.06;5101743;28;19920;-85
2022/07/02 08:56:22;;;;;;;;;;;;;;;37.41;25.36;95204.16;5073023;28;19931;-86
2022/07/02 08:58:50;;;;;;;;;;;;;;;37.36;25.65;95207.31;5086708;28;19978;-86
2022/07/02 09:01:15;;;;;;;;;;;;;;;37.33;25.62;95208.09;5111075;28;19927;-87
2022/07/02 09:03:41;;;;;;;;;;;;;;;37.17;24.92;95205.81;5084757;28;20023;-87
2022/07/02 09:06:06;;;;;;;;;;;;;;;37.02;25.02;95198.88;5085119;28;19921;-87
2022/07/02 09:08:34;;;;;;;;;;;;;;;36.98;25.21;95203.56;5084415;28;19985;-86
2022/07/02 09:10:59;;;;;;;;;;;;;;;37.03;25.99;95199.66;5084831;28;20434;-86
2022/07/02 09:13:24;;;;;;;;;;;;;;;37.05;26.37;95197.31;5183397;22;19925;-87
2022/07/02 09:15:51;;;;;;;;;;;;;;;36.89;25.18;95195.06;5080043;28;19924;-87
2022/07/02 09:18:46;;;;;;;;;;;;;;;36.85;25.06;95188.88;5140233;22;19939;-88
2022/07/02 09:21:11;;;;;;;;;;;;;;;36.64;25.90;95186.97;5104913;28;19927;-88
2022/07/02 09:23:44;;;;;;;;;;;;;;;36.65;26.57;95181.16;5099414;28;19924;-87
2022/07/02 09:26:15;;;;;;;;;;;;;;;36.68;25.65;95190.44;5099289;22;19925;-86
2022/07/02 09:28:50;;;;;;;;;;;;;;;36.60;25.36;95197.00;5072956;28;19924;-86
2022/07/02 09:31:15;;;;;;;;;;;;;;;36.39;25.48;95195.13;5064868;28;19931;-86
2022/07/02 09:33:40;;;;;;;;;;;;;;;36.35;25.32;95186.22;5070885;28;20326;-85
2022/07/02 09:36:10;;;;;;;;;;;;;;;36.49;24.93;95180.03;5068574;28;19936;-86
2022/07/02 09:38:42;;;;;;;;;;;;;;;36.65;25.52;95174.97;5102565;22;19924;-85
2022/07/02 09:41:14;;;;;;;;;;;;;;;36.74;25.00;95188.88;5123246;28;19928;-86
2022/07/02 09:43:40;;;;;;;;;;;;;;;36.74;25.38;95175.31;5088831;28;19928;-86
2022/07/02 09:46:15;;;;;;;;;;;;;;;36.33;25.75;95185.84;5117812;28;19920;-86
2022/07/02 09:48:40;;;;;;;;;;;;;;;35.92;24.78;95185.41;5114855;28;19926;-85
2022/07/02 09:51:06;;;;;;;;;;;;;;;35.50;25.81;95189.59;5071997;28;20002;-85
2022/07/02 09:53:32;;;;;;;;;;;;;;;35.44;26.43;95191.09;5088884;28;19958;-86
2022/07/02 09:55:57;;;;;;;;;;;;;;;35.38;26.59;95184.53;5106070;28;20291;-87
2022/07/02 09:58:44;;;;;;;;;;;;;;;35.29;26.66;95192.19;5069612;28;19916;-87
2022/07/02 10:01:09;;;;;;;;;;;;;;;35.26;26.69;95182.13;5087060;28;19924;-86
2022/07/02 10:03:47;;;;;;;;;;;;;;;35.24;26.01;95173.63;5104002;28;19916;-86
2022/07/02 10:06:12;;;;;;;;;;;;;;;35.31;26.40;95173.63;5105371;28;19924;-86
2022/07/02 10:08:40;;;;;;;;;;;;;;;35.21;27.49;95167.06;5105036;28;19924;-86
2022/07/02 10:11:06;;;;;;;;;;;;;;;34.75;27.76;95167.59;5103744;28;19931;-85
2022/07/02 10:13:31;;;;;;;;;;;;;;;34.68;28.43;95162.16;5089660;28;19924;-85
2022/07/02 10:16:00;;;;;;;;;;;;;;;34.53;28.19;95158.63;5086662;28;19951;-86
2022/07/02 10:18:26;;;;;;;;;;;;;;;34.31;28.39;95156.88;5106983;28;19920;-86
2022/07/02 10:20:52;;;;;;;;;;;;;;;34.44;27.91;95154.69;5088029;28;20844;-86
2022/07/02 10:23:17;;;;;;;;;;;;;;;34.57;27.82;95151.31;5090553;28;19920;-87
2022/07/02 10:25:43;;;;;;;;;;;;;;;34.47;28.60;95145.81;5072481;28;19924;-82
2022/07/02 10:28:08;;;;;;;;;;;;;;;33.95;28.88;95148.53;5107954;28;19924;-86
2022/07/02 10:30:33;;;;;;;;;;;;;;;33.76;29.59;95137.94;5091375;28;19927;-85
2022/07/02 10:33:05;;;;;;;;;;;;;;;33.83;28.46;95143.38;5116565;22;19927;-86
2022/07/02 10:35:32;;;;;;;;;;;;;;;33.27;28.32;95144.38;5129157;28;19924;-85
2022/07/02 10:40:25;;;;;;;;;;;;;;;33.10;29.73;95148.41;5102163;28;19934;-78
2022/07/02 10:42:50;;;;;;;;;;;;;;;33.34;32.78;95147.16;5088691;28;20303;-76
2022/07/02 10:45:16;;;;;;;;;;;;;;;33.43;29.32;95139.56;5109771;28;20255;-75
2022/07/02 10:47:57;;;;;;;;;;;;;;;33.48;30.88;95141.13;5111257;28;19924;-78
2022/07/02 10:50:46;;;;;;;;;;;;;;;33.74;31.27;95142.94;5099002;28;19961;-77
2022/07/02 10:53:18;;;;;;;;;;;;;;;33.92;28.53;95137.72;5085924;28;19924;-77
2022/07/02 10:55:44;;;;;;;;;;;;;;;33.92;28.93;95143.09;5110804;28;20069;-76
2022/07/02 10:58:17;;;;;;;;;;;;;;;33.83;28.27;95137.22;5081884;28;19927;-76
2022/07/02 11:00:42;;;;;;;;;;;;;;;34.04;30.09;95133.97;5109890;28;19927;-78
2022/07/02 11:03:21;;;;;;;;;;;;;;;34.23;29.38;95131.00;5098334;28;19928;-78
2022/07/02 11:05:52;;;;;;;;;;;;;;;33.63;29.32;95128.56;5107660;28;19974;-77
2022/07/02 11:08:36;;;;;;;;;;;;;;;33.64;29.25;95132.81;5109753;28;20391;-77
2022/07/02 11:11:02;;;;;;;;;;;;;;;33.92;29.92;95133.09;5099408;28;19930;-77
2022/07/02 11:13:34;;;;;;;;;;;;;;;34.16;29.49;95128.25;5082582;28;20006;-77
2022/07/02 11:15:59;;;;;;;;;;;;;;;34.10;29.47;95121.66;5100018;28;19924;-77
2022/07/02 11:18:24;;;;;;;;;;;;;;;33.97;29.93;95123.88;5107127;28;19942;-77
2022/07/02 11:20:50;;;;;;;;;;;;;;;34.00;28.72;95129.28;5097835;28;19920;-78
2022/07/02 11:23:15;;;;;;;;;;;;;;;34.11;28.18;95123.19;5103337;28;20353;-78
2022/07/02 11:25:40;;;;;;;;;;;;;;;33.80;28.23;95125.25;5105095;28;19924;-77
2022/07/02 11:28:05;;;;;;;;;;;;;;;33.30;29.42;95129.38;5114092;28;19934;-77
2022/07/02 11:30:31;;;;;;;;;;;;;;;32.61;30.69;95131.63;5085243;28;19919;-77
2022/07/02 11:32:56;;;;;;;;;;;;;;;32.09;30.09;95133.94;5085691;28;19923;-77
2022/07/02 11:35:22;;;;;;;;;;;;;;;31.87;32.50;95126.66;5102170;28;19920;-77
2022/07/02 11:37:47;;;;;;;;;;;;;;;31.82;32.44;95145.78;5102969;28;20006;-77
2022/07/02 11:40:22;;;;;;;;;;;;;;;31.39;35.95;95142.31;5101244;28;19940;-77
2022/07/02 11:42:47;;;;;;;;;;;;;;;31.41;36.41;95137.41;5112499;28;20391;-77
2022/07/02 11:45:13;;;;;;;;;;;;;;;31.46;37.40;95139.78;5103955;28;19920;-77
2022/07/02 11:47:42;;;;;;;;;;;;;;;31.47;36.11;95146.72;5113492;28;19923;-77
2022/07/02 11:50:07;;;;;;;;;;;;;;;31.42;36.98;95155.06;5109198;28;20024;-76
2022/07/02 11:52:33;;;;;;;;;;;;;;;31.39;38.07;95161.13;5113042;28;19959;-77
2022/07/02 11:54:58;;;;;;;;;;;;;;;31.38;39.05;95158.81;5112919;28;19919;-77
2022/07/02 11:57:31;;;;;;;;;;;;;;;31.28;39.05;95155.59;5113004;28;20291;-77
2022/07/02 11:59:56;;;;;;;;;;;;;;;31.24;38.99;95154.75;5112289;28;19980;-77
2022/07/02 12:02:21;;;;;;;;;;;;;;;31.02;36.28;95148.13;5088296;28;19923;-77
2022/07/02 12:04:47;;;;;;;;;;;;;;;30.70;35.38;95146.72;5109101;28;20561;-77
2022/07/02 12:07:13;;;;;;;;;;;;;;;30.63;34.86;95141.22;5113778;28;19920;-77
2022/07/02 12:09:38;;;;;;;;;;;;;;;30.69;35.41;95154.00;5111494;28;19920;-77
2022/07/02 12:12:04;;;;;;;;;;;;;;;30.72;35.44;95152.50;5112311;28;20003;-76
2022/07/02 12:14:29;;;;;;;;;;;;;;;30.71;37.86;95157.09;5112632;28;19928;-76
2022/07/02 12:16:54;;;;;;;;;;;;;;;30.66;37.69;95156.59;5083775;28;19930;-78
2022/07/02 12:19:22;;;;;;;;;;;;;;;30.57;38.50;95158.66;5109838;28;20032;-76
2022/07/02 12:21:50;;;;;;;;;;;;;;;30.52;39.26;95161.63;5140636;22;19928;-78
2022/07/02 12:24:21;;;;;;;;;;;;;;;30.54;39.78;95167.44;5070777;28;19924;-78
2022/07/02 12:26:51;;;;;;;;;;;;;;;30.56;40.79;95173.22;5150301;22;19924;-78
2022/07/02 12:32:07;;;;;;;;;;;;;;;30.55;40.84;95179.72;5139044;28;19926;-77
2022/07/02 12:34:39;;;;;;;;;;;;;;;30.56;40.44;95179.38;5132879;28;19920;-77
2022/07/02 12:37:04;;;;;;;;;;;;;;;30.55;40.72;95182.41;5132521;27;20009;-78
2022/07/02 12:39:40;;;;;;;;;;;;;;;30.55;41.31;95168.97;5133015;28;20348;-75
2022/07/02 12:42:25;;;;;;;;;;;;;;;30.53;43.04;95158.59;5132177;28;19919;-75
2022/07/02 12:44:51;;;;;;;;;;;;;;;30.49;41.90;95168.47;5132264;28;19958;-76
2022/07/02 12:47:32;;;;;;;;;;;;;;;30.48;43.26;95178.44;5132399;27;19978;-75
2022/07/02 12:49:58;;;;;;;;;;;;;;;30.44;45.16;95188.31;5113406;28;19926;-76
2022/07/02 12:52:23;;;;;;;;;;;;;;;30.39;45.41;95177.84;5132333;27;19923;-75
2022/07/02 12:54:48;;;;;;;;;;;;;;;30.27;45.08;95177.19;5131290;28;19998;-75
2022/07/02 12:57:19;;;;;;;;;;;;;;;30.16;46.15;95182.28;5114147;28;20286;-74
2022/07/02 12:59:45;;;;;;;;;;;;;;;30.11;47.19;95174.53;5130832;28;19919;-75
2022/07/02 13:02:36;;;;;;;;;;;;;;;30.07;47.00;95168.28;5133485;27;19949;-79